sensor_id;sensor_type;location;lat;lon;timestamp;pressure;altitude;pressure_sealevel;temperature;humidity
8280;BME280;8335;42.646;23.380;2023-03-01T00:00:44;143111.25;;;6.12;100.00
8280;BME280;8335;42.646;23.380;2023-03-01T00:03:12;143092.66;;;6.04;100.00
8280;BME280;8335;42.646;23.380;2023-03-01T00:05:45;142963.88;;;5.51;100.00
8280;BME280;8335;42.646;23.380;2023-03-01T00:08:11;143014.63;;;5.72;100.00
8280;BME280;8335;42.646;23.380;2023-03-01T00:10:38;142972.50;;;5.55;100.00
8280;BME280;8335;42.646;23.380;2023-03-01T00:13:05;142984.91;;;5.60;100.00
8280;BME280;8335;42.646;23.380;2023-03-01T00:15:32;143008.41;;;5.69;100.00
8280;BME280;8335;42.646;23.380;2023-03-01T00:18:00;143014.63;;;5.72;100.00
8280;BME280;8335;42.646;23.380;2023-03-01T00:20:26;143025.75;;;5.76;100.00
8280;BME280;8335;42.646;23.380;2023-03-01T00:22:54;143024.50;;;5.76;100.00
8280;BME280;8335;42.646;23.380;2023-03-01T00:25:21;143001.00;;;5.66;100.00
8280;BME280;8335;42.646;23.380;2023-03-01T00:27:48;142992.31;;;5.63;100.00
8280;BME280;8335;42.646;23.380;2023-03-01T00:30:15;142982.44;;;5.59;100.00
8280;BME280;8335;42.646;23.380;2023-03-01T00:32:42;142963.88;;;5.51;100.00
8280;BME280;8335;42.646;23.380;2023-03-01T00:35:09;142946.53;;;5.44;100.00
8280;BME280;8335;42.646;23.380;2023-03-01T00:37:35;142942.78;;;5.42;100.00
8280;BME280;8335;42.646;23.380;2023-03-01T00:40:04;142945.31;;;5.43;100.00
8280;BME280;8335;42.646;23.380;2023-03-01T00:42:32;142955.19;;;5.47;100.00
8280;BME280;8335;42.646;23.380;2023-03-01T00:44:59;142941.56;;;5.42;100.00
8280;BME280;8335;42.646;23.380;2023-03-01T00:47:25;142968.81;;;5.53;100.00
8280;BME280;8335;42.646;23.380;2023-03-01T00:49:54;142977.47;;;5.57;100.00
8280;BME280;8335;42.646;23.380;2023-03-01T00:52:21;142963.88;;;5.51;100.00
8280;BME280;8335;42.646;23.380;2023-03-01T00:54:48;142958.88;;;5.49;100.00
8280;BME280;8335;42.646;23.380;2023-03-01T00:57:16;142971.28;;;5.54;100.00
8280;BME280;8335;42.646;23.380;2023-03-01T00:59:43;142989.84;;;5.62;100.00
8280;BME280;8335;42.646;23.380;2023-03-01T01:02:09;142997.31;;;5.65;100.00
8280;BME280;8335;42.646;23.380;2023-03-01T01:04:36;142994.78;;;5.64;100.00
8280;BME280;8335;42.646;23.380;2023-03-01T01:07:03;142973.75;;;5.55;100.00
8280;BME280;8335;42.646;23.380;2023-03-01T01:09:30;142963.88;;;5.51;100.00
8280;BME280;8335;42.646;23.380;2023-03-01T01:11:57;142955.19;;;5.47;100.00
8280;BME280;8335;42.646;23.380;2023-03-01T01:14:25;142923.00;;;5.34;100.00
8280;BME280;8335;42.646;23.380;2023-03-01T01:16:52;142770.84;;;4.72;100.00
8280;BME280;8335;42.646;23.380;2023-03-01T01:19:19;142921.75;;;5.34;100.00
8280;BME280;8335;42.646;23.380;2023-03-01T01:21:46;142869.78;;;5.12;100.00
8280;BME280;8335;42.646;23.380;2023-03-01T01:24:14;142914.34;;;5.31;100.00
8280;BME280;8335;42.646;23.380;2023-03-01T01:26:41;142958.88;;;5.49;100.00
8280;BME280;8335;42.646;23.380;2023-03-01T01:29:08;142939.09;;;5.41;100.00
8280;BME280;8335;42.646;23.380;2023-03-01T01:31:38;142931.69;;;5.38;100.00
8280;BME280;8335;42.646;23.380;2023-03-01T01:34:08;142890.81;;;5.21;100.00
8280;BME280;8335;42.646;23.380;2023-03-01T01:36:36;142925.47;;;5.35;100.00
8280;BME280;8335;42.646;23.380;2023-03-01T01:39:02;142958.88;;;5.49;100.00
8280;BME280;8335;42.646;23.380;2023-03-01T01:41:30;142930.44;;;5.37;100.00
8280;BME280;8335;42.646;23.380;2023-03-01T01:44:15;142918.06;;;5.32;100.00
8280;BME280;8335;42.646;23.380;2023-03-01T01:46:46;142918.06;;;5.32;100.00
8280;BME280;8335;42.646;23.380;2023-03-01T01:49:22;142889.59;;;5.20;100.00
8280;BME280;8335;42.646;23.380;2023-03-01T01:51:52;142892.09;;;5.21;100.00
8280;BME280;8335;42.646;23.380;2023-03-01T01:54:26;142927.97;;;5.36;100.00
8280;BME280;8335;42.646;23.380;2023-03-01T01:56:57;142941.56;;;5.42;100.00
8280;BME280;8335;42.646;23.380;2023-03-01T01:59:26;142919.28;;;5.33;100.00
8280;BME280;8335;42.646;23.380;2023-03-01T02:01:59;142908.16;;;5.28;100.00
8280;BME280;8335;42.646;23.380;2023-03-01T02:04:27;142901.97;;;5.25;100.00
8280;BME280;8335;42.646;23.380;2023-03-01T02:06:58;142897.03;;;5.23;100.00
8280;BME280;8335;42.646;23.380;2023-03-01T02:09:26;142871.03;;;5.13;100.00
8280;BME280;8335;42.646;23.380;2023-03-01T02:11:53;142874.78;;;5.14;100.00
8280;BME280;8335;42.646;23.380;2023-03-01T02:14:20;142877.25;;;5.15;100.00
8280;BME280;8335;42.646;23.380;2023-03-01T02:16:47;142894.56;;;5.22;100.00
8280;BME280;8335;42.646;23.380;2023-03-01T02:19:26;142918.06;;;5.32;100.00
8280;BME280;8335;42.646;23.380;2023-03-01T02:21:59;142919.28;;;5.33;100.00
8280;BME280;8335;42.646;23.380;2023-03-01T02:24:42;142916.81;;;5.32;100.00
8280;BME280;8335;42.646;23.380;2023-03-01T02:27:17;142908.16;;;5.28;100.00
8280;BME280;8335;42.646;23.380;2023-03-01T02:29:51;142913.13;;;5.30;100.00
8280;BME280;8335;42.646;23.380;2023-03-01T02:32:19;142869.78;;;5.12;100.00
8280;BME280;8335;42.646;23.380;2023-03-01T02:34:51;142880.94;;;5.17;100.00
8280;BME280;8335;42.646;23.380;2023-03-01T02:37:17;142910.66;;;5.29;100.00
8280;BME280;8335;42.646;23.380;2023-03-01T02:39:54;142921.75;;;5.34;100.00
8280;BME280;8335;42.646;23.380;2023-03-01T02:42:26;142932.91;;;5.38;100.00
8280;BME280;8335;42.646;23.380;2023-03-01T02:44:56;142929.22;;;5.37;100.00
8280;BME280;8335;42.646;23.380;2023-03-01T02:47:23;142903.19;;;5.26;100.00
8280;BME280;8335;42.646;23.380;2023-03-01T02:49:49;142906.91;;;5.28;100.00
8280;BME280;8335;42.646;23.380;2023-03-01T02:52:34;142918.06;;;5.32;100.00
8280;BME280;8335;42.646;23.380;2023-03-01T02:55:07;142915.59;;;5.31;100.00
8280;BME280;8335;42.646;23.380;2023-03-01T02:57:36;142918.06;;;5.32;100.00
8280;BME280;8335;42.646;23.380;2023-03-01T03:00:08;142929.22;;;5.37;100.00
8280;BME280;8335;42.646;23.380;2023-03-01T03:02:36;142936.63;;;5.40;100.00
8280;BME280;8335;42.646;23.380;2023-03-01T03:05:10;142942.78;;;5.42;100.00
8280;BME280;8335;42.646;23.380;2023-03-01T03:07:38;142944.03;;;5.43;100.00
8280;BME280;8335;42.646;23.380;2023-03-01T03:10:07;142958.88;;;5.49;100.00
8280;BME280;8335;42.646;23.380;2023-03-01T03:12:36;142955.19;;;5.47;100.00
8280;BME280;8335;42.646;23.380;2023-03-01T03:15:06;142930.44;;;5.37;100.00
8280;BME280;8335;42.646;23.380;2023-03-01T03:17:35;142897.03;;;5.23;100.00
8280;BME280;8335;42.646;23.380;2023-03-01T03:20:02;142882.19;;;5.17;100.00
8280;BME280;8335;42.646;23.380;2023-03-01T03:22:29;142867.31;;;5.11;100.00
8280;BME280;8335;42.646;23.380;2023-03-01T03:24:56;142857.44;;;5.07;100.00
8280;BME280;8335;42.646;23.380;2023-03-01T03:27:23;142863.63;;;5.10;100.00
8280;BME280;8335;42.646;23.380;2023-03-01T03:29:49;142871.03;;;5.13;100.00
8280;BME280;8335;42.646;23.380;2023-03-01T03:32:17;142878.47;;;5.16;100.00
8280;BME280;8335;42.646;23.380;2023-03-01T03:34:44;142856.16;;;5.07;100.00
8280;BME280;8335;42.646;23.380;2023-03-01T03:37:11;142854.94;;;5.06;100.00
8280;BME280;8335;42.646;23.380;2023-03-01T03:39:58;142861.16;;;5.09;100.00
8280;BME280;8335;42.646;23.380;2023-03-01T03:42:25;142885.88;;;5.19;100.00
8280;BME280;8335;42.646;23.380;2023-03-01T03:44:52;142892.09;;;5.21;100.00
8280;BME280;8335;42.646;23.380;2023-03-01T03:47:20;142883.41;;;5.18;100.00
8280;BME280;8335;42.646;23.380;2023-03-01T03:49:46;142893.31;;;5.22;100.00
8280;BME280;8335;42.646;23.380;2023-03-01T03:52:13;142887.09;;;5.19;100.00
8280;BME280;8335;42.646;23.380;2023-03-01T03:54:40;142877.25;;;5.15;100.00
8280;BME280;8335;42.646;23.380;2023-03-01T03:57:06;142880.94;;;5.17;100.00
8280;BME280;8335;42.646;23.380;2023-03-01T03:59:33;142889.59;;;5.20;100.00
8280;BME280;8335;42.646;23.380;2023-03-01T04:02:00;142889.59;;;5.20;100.00
8280;BME280;8335;42.646;23.380;2023-03-01T04:04:28;142893.31;;;5.22;100.00
8280;BME280;8335;42.646;23.380;2023-03-01T04:06:55;142890.81;;;5.21;100.00
8280;BME280;8335;42.646;23.380;2023-03-01T04:09:21;142906.91;;;5.28;100.00
8280;BME280;8335;42.646;23.380;2023-03-01T04:11:48;142909.38;;;5.29;100.00
8280;BME280;8335;42.646;23.380;2023-03-01T04:14:15;142918.06;;;5.32;100.00
8280;BME280;8335;42.646;23.380;2023-03-01T04:16:41;142894.56;;;5.22;100.00
8280;BME280;8335;42.646;23.380;2023-03-01T04:19:08;142888.34;;;5.20;100.00
8280;BME280;8335;42.646;23.380;2023-03-01T04:21:37;142874.78;;;5.14;100.00
8280;BME280;8335;42.646;23.380;2023-03-01T04:24:04;142884.66;;;5.18;100.00
8280;BME280;8335;42.646;23.380;2023-03-01T04:26:32;142901.97;;;5.25;100.00
8280;BME280;8335;42.646;23.380;2023-03-01T04:28:58;142914.34;;;5.31;100.00
8280;BME280;8335;42.646;23.380;2023-03-01T04:31:25;142930.44;;;5.37;100.00
8280;BME280;8335;42.646;23.380;2023-03-01T04:33:53;142920.53;;;5.33;100.00
8280;BME280;8335;42.646;23.380;2023-03-01T04:36:22;142947.78;;;5.44;100.00
8280;BME280;8335;42.646;23.380;2023-03-01T04:38:51;142960.13;;;5.49;100.00
8280;BME280;8335;42.646;23.380;2023-03-01T04:41:19;142978.69;;;5.57;100.00
8280;BME280;8335;42.646;23.380;2023-03-01T04:43:46;142961.38;;;5.50;100.00
8280;BME280;8335;42.646;23.380;2023-03-01T04:46:16;142967.56;;;5.52;100.00
8280;BME280;8335;42.646;23.380;2023-03-01T04:48:44;142968.81;;;5.53;100.00
8280;BME280;8335;42.646;23.380;2023-03-01T04:51:12;142963.88;;;5.51;100.00
8280;BME280;8335;42.646;23.380;2023-03-01T04:53:39;142944.03;;;5.43;100.00
8280;BME280;8335;42.646;23.380;2023-03-01T04:56:08;142952.72;;;5.46;100.00
8280;BME280;8335;42.646;23.380;2023-03-01T04:58:34;142961.38;;;5.50;100.00
8280;BME280;8335;42.646;23.380;2023-03-01T05:01:07;142953.94;;;5.47;100.00
8280;BME280;8335;42.646;23.380;2023-03-01T05:03:41;142953.94;;;5.47;100.00
8280;BME280;8335;42.646;23.380;2023-03-01T05:06:07;142927.97;;;5.36;100.00
8280;BME280;8335;42.646;23.380;2023-03-01T05:08:36;142941.56;;;5.42;100.00
8280;BME280;8335;42.646;23.380;2023-03-01T05:11:03;142957.66;;;5.48;100.00
8280;BME280;8335;42.646;23.380;2023-03-01T05:13:31;142935.38;;;5.39;100.00
8280;BME280;8335;42.646;23.380;2023-03-01T05:16:00;142882.19;;;5.17;100.00
8280;BME280;8335;42.646;23.380;2023-03-01T05:18:29;142908.16;;;5.28;100.00
8280;BME280;8335;42.646;23.380;2023-03-01T05:21:03;142895.81;;;5.23;100.00
8280;BME280;8335;42.646;23.380;2023-03-01T05:23:30;142885.88;;;5.19;100.00
8280;BME280;8335;42.646;23.380;2023-03-01T05:25:57;142862.38;;;5.09;100.00
8280;BME280;8335;42.646;23.380;2023-03-01T05:28:25;142871.03;;;5.13;100.00
8280;BME280;8335;42.646;23.380;2023-03-01T05:30:53;142878.47;;;5.16;100.00
8280;BME280;8335;42.646;23.380;2023-03-01T05:33:20;142898.25;;;5.24;100.00
8280;BME280;8335;42.646;23.380;2023-03-01T05:35:48;142903.19;;;5.26;100.00
8280;BME280;8335;42.646;23.380;2023-03-01T05:38:15;142916.81;;;5.32;100.00
8280;BME280;8335;42.646;23.380;2023-03-01T05:40:44;142929.22;;;5.37;100.00
8280;BME280;8335;42.646;23.380;2023-03-01T05:43:12;142945.31;;;5.43;100.00
8280;BME280;8335;42.646;23.380;2023-03-01T05:45:40;142932.91;;;5.38;100.00
8280;BME280;8335;42.646;23.380;2023-03-01T05:48:09;142966.34;;;5.52;100.00
8280;BME280;8335;42.646;23.380;2023-03-01T05:50:39;142935.38;;;5.39;100.00
8280;BME280;8335;42.646;23.380;2023-03-01T05:53:07;142906.91;;;5.28;100.00
8280;BME280;8335;42.646;23.380;2023-03-01T05:55:36;142899.50;;;5.24;100.00
8280;BME280;8335;42.646;23.380;2023-03-01T05:58:05;142905.66;;;5.27;100.00
8280;BME280;8335;42.646;23.380;2023-03-01T06:00:32;142905.66;;;5.27;100.00
8280;BME280;8335;42.646;23.380;2023-03-01T06:02:59;142884.66;;;5.18;100.00
8280;BME280;8335;42.646;23.380;2023-03-01T06:05:28;142892.09;;;5.21;100.00
8280;BME280;8335;42.646;23.380;2023-03-01T06:07:57;142874.78;;;5.14;100.00
8280;BME280;8335;42.646;23.380;2023-03-01T06:10:24;142862.38;;;5.09;100.00
8280;BME280;8335;42.646;23.380;2023-03-01T06:12:51;142840.13;;;5.00;100.00
8280;BME280;8335;42.646;23.380;2023-03-01T06:15:18;142846.28;;;5.03;100.00
8280;BME280;8335;42.646;23.380;2023-03-01T06:17:46;142822.81;;;4.93;100.00
8280;BME280;8335;42.646;23.380;2023-03-01T06:20:14;142814.13;;;4.89;100.00
8280;BME280;8335;42.646;23.380;2023-03-01T06:22:43;142780.72;;;4.76;100.00
8280;BME280;8335;42.646;23.380;2023-03-01T06:25:11;142793.09;;;4.81;100.00
8280;BME280;8335;42.646;23.380;2023-03-01T06:27:38;142794.34;;;4.81;100.00
8280;BME280;8335;42.646;23.380;2023-03-01T06:30:06;142826.50;;;4.94;100.00
8280;BME280;8335;42.646;23.380;2023-03-01T06:32:35;142845.06;;;5.02;100.00
8280;BME280;8335;42.646;23.380;2023-03-01T06:35:03;142857.44;;;5.07;100.00
8280;BME280;8335;42.646;23.380;2023-03-01T06:37:29;142889.59;;;5.20;100.00
8280;BME280;8335;42.646;23.380;2023-03-01T06:39:58;142900.72;;;5.25;100.00
8280;BME280;8335;42.646;23.380;2023-03-01T06:42:24;142822.81;;;4.93;100.00
8280;BME280;8335;42.646;23.380;2023-03-01T06:44:51;142935.38;;;5.39;100.00
8280;BME280;8335;42.646;23.380;2023-03-01T06:47:18;142931.69;;;5.38;100.00
8280;BME280;8335;42.646;23.380;2023-03-01T06:49:44;142877.25;;;5.15;100.00
8280;BME280;8335;42.646;23.380;2023-03-01T06:52:11;142934.16;;;5.39;100.00
8280;BME280;8335;42.646;23.380;2023-03-01T06:54:38;142951.47;;;5.46;100.00
8280;BME280;8335;42.646;23.380;2023-03-01T06:57:06;142978.69;;;5.57;100.00
8280;BME280;8335;42.646;23.380;2023-03-01T06:59:33;142942.78;;;5.42;100.00
8280;BME280;8335;42.646;23.380;2023-03-01T07:01:59;142968.81;;;5.53;100.00
8280;BME280;8335;42.646;23.380;2023-03-01T07:04:26;142981.19;;;5.58;100.00
8280;BME280;8335;42.646;23.380;2023-03-01T07:06:53;142945.31;;;5.43;100.00
8280;BME280;8335;42.646;23.380;2023-03-01T07:09:21;142960.13;;;5.49;100.00
8280;BME280;8335;42.646;23.380;2023-03-01T07:11:48;142956.41;;;5.48;100.00
8280;BME280;8335;42.646;23.380;2023-03-01T07:14:16;142965.09;;;5.51;100.00
8280;BME280;8335;42.646;23.380;2023-03-01T07:16:43;142977.47;;;5.57;100.00
8280;BME280;8335;42.646;23.380;2023-03-01T07:19:09;142997.31;;;5.65;100.00
8280;BME280;8335;42.646;23.380;2023-03-01T07:21:36;143010.88;;;5.70;100.00
8280;BME280;8335;42.646;23.380;2023-03-01T07:24:05;142993.56;;;5.63;100.00
8280;BME280;8335;42.646;23.380;2023-03-01T07:26:32;142986.16;;;5.60;100.00
8280;BME280;8335;42.646;23.380;2023-03-01T07:28:59;143020.81;;;5.74;100.00
8280;BME280;8335;42.646;23.380;2023-03-01T07:31:27;143051.78;;;5.87;100.00
8280;BME280;8335;42.646;23.380;2023-03-01T07:33:54;143053.00;;;5.88;100.00
8280;BME280;8335;42.646;23.380;2023-03-01T07:36:22;143060.47;;;5.91;100.00
8280;BME280;8335;42.646;23.380;2023-03-01T07:38:49;143071.63;;;5.95;100.00
8280;BME280;8335;42.646;23.380;2023-03-01T07:41:16;143091.44;;;6.03;100.00
8280;BME280;8335;42.646;23.380;2023-03-01T07:43:43;143088.97;;;6.02;100.00
8280;BME280;8335;42.646;23.380;2023-03-01T07:46:10;143102.59;;;6.08;100.00
8280;BME280;8335;42.646;23.380;2023-03-01T07:48:38;143082.75;;;6.00;100.00
8280;BME280;8335;42.646;23.380;2023-03-01T07:51:06;143066.69;;;5.93;100.00
8280;BME280;8335;42.646;23.380;2023-03-01T07:53:33;143090.19;;;6.03;100.00
8280;BME280;8335;42.646;23.380;2023-03-01T07:56:02;143118.69;;;6.15;100.00
8280;BME280;8335;42.646;23.380;2023-03-01T07:58:28;143136.03;;;6.22;100.00
8280;BME280;8335;42.646;23.380;2023-03-01T08:00:55;143174.44;;;6.38;100.00
8280;BME280;8335;42.646;23.380;2023-03-01T08:03:22;143214.06;;;6.54;100.00
8280;BME280;8335;42.646;23.380;2023-03-01T08:05:50;143233.88;;;6.62;100.00
8280;BME280;8335;42.646;23.380;2023-03-01T08:08:17;143258.69;;;6.72;100.00
8280;BME280;8335;42.646;23.380;2023-03-01T08:10:43;143276.03;;;6.79;100.00
8280;BME280;8335;42.646;23.380;2023-03-01T08:13:10;143285.94;;;6.83;100.00
8280;BME280;8335;42.646;23.380;2023-03-01T08:15:37;143282.22;;;6.82;100.00
8280;BME280;8335;42.646;23.380;2023-03-01T08:18:04;143238.81;;;6.64;100.00
8280;BME280;8335;42.646;23.380;2023-03-01T08:20:31;143247.53;;;6.68;100.00
8280;BME280;8335;42.646;23.380;2023-03-01T08:23:00;143243.81;;;6.66;100.00
8280;BME280;8335;42.646;23.380;2023-03-01T08:25:26;143230.16;;;6.60;100.00
8280;BME280;8335;42.646;23.380;2023-03-01T08:27:53;143237.59;;;6.63;100.00
8280;BME280;8335;42.646;23.380;2023-03-01T08:30:20;143253.69;;;6.70;100.00
8280;BME280;8335;42.646;23.380;2023-03-01T08:32:49;143263.63;;;6.74;100.00
8280;BME280;8335;42.646;23.380;2023-03-01T08:35:16;143257.44;;;6.72;100.00
8280;BME280;8335;42.646;23.380;2023-03-01T08:37:43;143261.16;;;6.73;100.00
8280;BME280;8335;42.646;23.380;2023-03-01T08:40:12;143264.88;;;6.75;100.00
8280;BME280;8335;42.646;23.380;2023-03-01T08:42:40;143268.56;;;6.76;100.00
8280;BME280;8335;42.646;23.380;2023-03-01T08:45:09;143139.75;;;6.23;100.00
8280;BME280;8335;42.646;23.380;2023-03-01T08:47:36;143292.16;;;6.86;100.00
8280;BME280;8335;42.646;23.380;2023-03-01T08:50:03;143297.09;;;6.88;100.00
8280;BME280;8335;42.646;23.380;2023-03-01T08:52:32;143299.56;;;6.89;100.00
8280;BME280;8335;42.646;23.380;2023-03-01T08:54:59;143288.41;;;6.84;100.00
8280;BME280;8335;42.646;23.380;2023-03-01T08:57:28;143283.44;;;6.82;100.00
8280;BME280;8335;42.646;23.380;2023-03-01T08:59:55;143279.75;;;6.81;100.00
8280;BME280;8335;42.646;23.380;2023-03-01T09:02:22;143292.16;;;6.86;100.00
8280;BME280;8335;42.646;23.380;2023-03-01T09:04:49;143285.94;;;6.83;100.00
8280;BME280;8335;42.646;23.380;2023-03-01T09:07:16;143319.38;;;6.97;100.00
8280;BME280;8335;42.646;23.380;2023-03-01T09:09:42;143309.50;;;6.93;100.00
8280;BME280;8335;42.646;23.380;2023-03-01T09:12:09;143293.38;;;6.86;100.00
8280;BME280;8335;42.646;23.380;2023-03-01T09:14:37;143285.94;;;6.83;100.00
8280;BME280;8335;42.646;23.380;2023-03-01T09:17:06;143282.22;;;6.82;100.00
8280;BME280;8335;42.646;23.380;2023-03-01T09:19:33;143271.03;;;6.77;100.00
8280;BME280;8335;42.646;23.380;2023-03-01T09:22:00;143297.09;;;6.88;100.00
8280;BME280;8335;42.646;23.380;2023-03-01T09:24:26;143276.03;;;6.79;100.00
8280;BME280;8335;42.646;23.380;2023-03-01T09:26:54;143190.53;;;6.44;100.00
8280;BME280;8335;42.646;23.380;2023-03-01T09:29:21;143329.31;;;7.01;100.00
8280;BME280;8335;42.646;23.380;2023-03-01T09:31:50;143331.78;;;7.02;100.00
8280;BME280;8335;42.646;23.380;2023-03-01T09:34:16;143318.16;;;6.97;100.00
8280;BME280;8335;42.646;23.380;2023-03-01T09:36:48;143306.97;;;6.92;100.00
8280;BME280;8335;42.646;23.380;2023-03-01T09:39:15;143311.97;;;6.94;100.00
8280;BME280;8335;42.646;23.380;2023-03-01T09:41:46;143330.56;;;7.02;100.00
8280;BME280;8335;42.646;23.380;2023-03-01T09:44:29;143335.50;;;7.04;100.00
8280;BME280;8335;42.646;23.380;2023-03-01T09:46:59;143337.97;;;7.05;100.00
8280;BME280;8335;42.646;23.380;2023-03-01T09:49:28;143304.50;;;6.91;100.00
8280;BME280;8335;42.646;23.380;2023-03-01T09:52:00;143258.69;;;6.72;100.00
8280;BME280;8335;42.646;23.380;2023-03-01T09:54:30;143274.78;;;6.79;100.00
8280;BME280;8335;42.646;23.380;2023-03-01T09:57:06;143278.50;;;6.80;100.00
8280;BME280;8335;42.646;23.380;2023-03-01T09:59:56;143313.22;;;6.95;100.00
8280;BME280;8335;42.646;23.380;2023-03-01T10:02:38;143349.16;;;7.09;100.00
8280;BME280;8335;42.646;23.380;2023-03-01T10:08:14;143313.22;;;6.95;100.00
8280;BME280;8335;42.646;23.380;2023-03-01T10:10:47;143284.69;;;6.83;100.00
8280;BME280;8335;42.646;23.380;2023-03-01T10:13:17;143279.75;;;6.81;100.00
8280;BME280;8335;42.646;23.380;2023-03-01T10:15:50;143274.78;;;6.79;100.00
8280;BME280;8335;42.646;23.380;2023-03-01T10:18:23;143290.88;;;6.85;100.00
8280;BME280;8335;42.646;23.380;2023-03-01T10:20:53;143273.50;;;6.78;100.00
8280;BME280;8335;42.646;23.380;2023-03-01T10:23:23;143292.16;;;6.86;100.00
8280;BME280;8335;42.646;23.380;2023-03-01T10:26:01;143297.09;;;6.88;100.00
8280;BME280;8335;42.646;23.380;2023-03-01T10:28:44;143314.44;;;6.95;100.00
8280;BME280;8335;42.646;23.380;2023-03-01T10:31:17;143319.38;;;6.97;100.00
8280;BME280;8335;42.646;23.380;2023-03-01T10:33:46;143306.97;;;6.92;100.00
8280;BME280;8335;42.646;23.380;2023-03-01T10:36:16;143309.50;;;6.93;100.00
8280;BME280;8335;42.646;23.380;2023-03-01T10:38:51;143346.69;;;7.08;100.00
8280;BME280;8335;42.646;23.380;2023-03-01T10:41:20;143356.56;;;7.12;100.00
8280;BME280;8335;42.646;23.380;2023-03-01T10:43:50;143342.91;;;7.07;100.00
8280;BME280;8335;42.646;23.380;2023-03-01T10:46:25;143328.09;;;7.01;100.00
8280;BME280;8335;42.646;23.380;2023-03-01T10:49:15;143367.75;;;7.17;100.00
8280;BME280;8335;42.646;23.380;2023-03-01T10:51:44;143321.84;;;6.98;99.49
8280;BME280;8335;42.646;23.380;2023-03-01T10:54:22;143468.19;;;7.58;98.22
8280;BME280;8335;42.646;23.380;2023-03-01T10:56:51;143443.34;;;7.48;97.60
8280;BME280;8335;42.646;23.380;2023-03-01T10:59:25;143501.66;;;7.72;98.15
8280;BME280;8335;42.646;23.380;2023-03-01T11:02:14;143519.03;;;7.79;96.82
8280;BME280;8335;42.646;23.380;2023-03-01T11:04:56;143517.78;;;7.79;97.32
8280;BME280;8335;42.646;23.380;2023-03-01T11:07:23;143531.38;;;7.84;97.07
8280;BME280;8335;42.646;23.380;2023-03-01T11:09:50;143571.13;;;8.00;97.08
8280;BME280;8335;42.646;23.380;2023-03-01T11:12:17;143619.47;;;8.20;95.40
8280;BME280;8335;42.646;23.380;2023-03-01T11:14:47;143631.88;;;8.25;94.95
8280;BME280;8335;42.646;23.380;2023-03-01T11:17:18;143646.78;;;8.32;94.50
8280;BME280;8335;42.646;23.380;2023-03-01T11:20:00;143665.44;;;8.39;94.22
8280;BME280;8335;42.646;23.380;2023-03-01T11:22:29;143662.97;;;8.38;93.51
8280;BME280;8335;42.646;23.380;2023-03-01T11:24:59;143681.56;;;8.46;94.04
8280;BME280;8335;42.646;23.380;2023-03-01T11:27:31;143631.88;;;8.25;94.68
8280;BME280;8335;42.646;23.380;2023-03-01T11:30:01;143643.06;;;8.30;94.71
8280;BME280;8335;42.646;23.380;2023-03-01T11:32:35;143597.16;;;8.11;94.72
8280;BME280;8335;42.646;23.380;2023-03-01T11:35:10;143609.56;;;8.16;95.56
8280;BME280;8335;42.646;23.380;2023-03-01T11:37:46;143612.03;;;8.17;95.43
8280;BME280;8335;42.646;23.380;2023-03-01T11:40:24;143623.22;;;8.22;95.11
8280;BME280;8335;42.646;23.380;2023-03-01T11:43:00;143638.06;;;8.28;94.73
8280;BME280;8335;42.646;23.380;2023-03-01T11:45:38;143664.19;;;8.39;94.47
8280;BME280;8335;42.646;23.380;2023-03-01T11:48:23;143645.53;;;8.31;94.11
8280;BME280;8335;42.646;23.380;2023-03-01T11:50:52;143681.56;;;8.46;95.03
8280;BME280;8335;42.646;23.380;2023-03-01T11:53:33;143665.44;;;8.39;94.39
8280;BME280;8335;42.646;23.380;2023-03-01T11:56:14;143662.97;;;8.38;94.29
8280;BME280;8335;42.646;23.380;2023-03-01T12:01:44;143665.44;;;8.39;95.24
8280;BME280;8335;42.646;23.380;2023-03-01T12:04:26;143633.13;;;8.26;94.72
8280;BME280;8335;42.646;23.380;2023-03-01T12:07:00;143655.50;;;8.35;94.44
8280;BME280;8335;42.646;23.380;2023-03-01T12:09:40;143676.63;;;8.44;94.42
8280;BME280;8335;42.646;23.380;2023-03-01T12:12:29;143691.47;;;8.50;94.12
8280;BME280;8335;42.646;23.380;2023-03-01T12:15:17;143708.84;;;8.57;93.60
8280;BME280;8335;42.646;23.380;2023-03-01T12:18:28;143734.94;;;8.68;93.07
8280;BME280;8335;42.646;23.380;2023-03-01T12:21:08;143736.16;;;8.68;92.70
8280;BME280;8335;42.646;23.380;2023-03-01T12:23:56;143792.03;;;8.91;91.85
8280;BME280;8335;42.646;23.380;2023-03-01T12:26:29;143805.69;;;8.97;91.83
8280;BME280;8335;42.646;23.380;2023-03-01T12:29:25;143813.13;;;9.00;91.12
8280;BME280;8335;42.646;23.380;2023-03-01T12:32:15;143780.88;;;8.87;91.29
8280;BME280;8335;42.646;23.380;2023-03-01T12:34:59;143769.69;;;8.82;91.92
8280;BME280;8335;42.646;23.380;2023-03-01T12:37:53;143782.13;;;8.87;91.91
8280;BME280;8335;42.646;23.380;2023-03-01T12:40:33;143808.16;;;8.98;91.60
8280;BME280;8335;42.646;23.380;2023-03-01T12:43:14;143756.03;;;8.76;91.70
8280;BME280;8335;42.646;23.380;2023-03-01T12:45:54;143758.50;;;8.77;91.74
8280;BME280;8335;42.646;23.380;2023-03-01T12:48:42;143785.84;;;8.89;91.57
8280;BME280;8335;42.646;23.380;2023-03-01T12:51:15;143759.75;;;8.78;91.00
8280;BME280;8335;42.646;23.380;2023-03-01T12:53:46;143770.94;;;8.82;90.97
8280;BME280;8335;42.646;23.380;2023-03-01T12:56:17;143762.25;;;8.79;91.94
8280;BME280;8335;42.646;23.380;2023-03-01T12:58:53;143783.34;;;8.88;91.49
8280;BME280;8335;42.646;23.380;2023-03-01T13:01:31;143803.22;;;8.96;91.42
8280;BME280;8335;42.646;23.380;2023-03-01T13:04:13;143811.88;;;8.99;91.24
8280;BME280;8335;42.646;23.380;2023-03-01T13:06:47;143830.50;;;9.07;91.12
8280;BME280;8335;42.646;23.380;2023-03-01T13:09:20;143834.25;;;9.08;91.31
8280;BME280;8335;42.646;23.380;2023-03-01T13:11:52;143829.25;;;9.06;91.38
8280;BME280;8335;42.646;23.380;2023-03-01T13:14:45;143760.97;;;8.78;91.27
8280;BME280;8335;42.646;23.380;2023-03-01T13:17:31;143767.22;;;8.81;92.05
8280;BME280;8335;42.646;23.380;2023-03-01T13:19:59;143762.25;;;8.79;92.25
8280;BME280;8335;42.646;23.380;2023-03-01T13:22:29;143782.13;;;8.87;91.69
8280;BME280;8335;42.646;23.380;2023-03-01T13:25:13;143757.25;;;8.77;91.84